Time;durP1;ratioP1;P1;durP2;ratioP2;P2;SDS_P1;SDS_P2;PMS_P1;PMS_P2;Temp;Humidity;BMP_temperature;BMP_pressure;BME280_temperature;BME280_humidity;BME280_pressure;Samples;Min_cycle;Max_cycle;Signal;HPM_P1;HPM_P2
2023/06/23 00:00:13;;;;;;;;;7.75;5.50;;;;;25.58;42.73;101736.09;4971056;28;45654;-48
2023/06/23 00:02:39;;;;;;;;;5.25;5.25;;;;;25.60;42.88;101744.81;4976652;28;46583;-47
2023/06/23 00:05:08;;;;;;;;;7.75;4.00;;;;;25.59;43.48;101749.31;4975113;28;46170;-48
2023/06/23 00:07:35;;;;;;;;;6.50;6.00;;;;;25.57;43.36;101745.88;4975349;28;45363;-47
2023/06/23 00:10:05;;;;;;;;;5.00;5.00;;;;;25.59;43.33;101748.44;4976634;28;45351;-48
2023/06/23 00:12:32;;;;;;;;;4.75;4.75;;;;;25.59;43.20;101743.13;4976101;28;46771;-47
2023/06/23 00:14:57;;;;;;;;;5.50;5.00;;;;;25.57;42.87;101737.91;4974983;28;45800;-45
2023/06/23 00:17:23;;;;;;;;;5.00;5.00;;;;;25.57;43.51;101743.22;4979738;28;45441;-46
2023/06/23 00:19:48;;;;;;;;;8.50;7.00;;;;;25.56;43.43;101749.47;4980143;28;45417;-44
2023/06/23 00:22:14;;;;;;;;;6.50;5.25;;;;;25.58;43.11;101760.00;4979514;28;49007;-46
2023/06/23 00:24:40;;;;;;;;;8.75;6.75;;;;;25.57;43.11;101756.50;4979955;28;45384;-46
2023/06/23 00:27:06;;;;;;;;;7.75;7.00;;;;;25.56;43.05;101760.09;4979660;28;45327;-45
2023/06/23 00:29:31;;;;;;;;;7.00;6.00;;;;;25.57;43.08;101767.13;4979891;28;45245;-46
2023/06/23 00:31:57;;;;;;;;;6.00;5.00;;;;;25.57;42.85;101763.63;4979477;28;46471;-48
2023/06/23 00:34:22;;;;;;;;;7.00;7.00;;;;;25.55;42.90;101761.03;4979428;28;45221;-47
2023/06/23 00:36:47;;;;;;;;;6.25;5.00;;;;;25.55;43.47;101754.91;4979478;28;45293;-45
2023/06/23 00:39:13;;;;;;;;;8.75;5.50;;;;;25.54;43.55;101756.69;4980090;28;45255;-45
2023/06/23 00:41:39;;;;;;;;;6.75;6.50;;;;;25.54;43.32;101761.16;4979307;28;47491;-47
2023/06/23 00:44:07;;;;;;;;;5.75;5.00;;;;;25.54;43.30;101756.69;4979370;28;45241;-49
2023/06/23 00:46:33;;;;;;;;;8.00;5.50;;;;;25.54;43.26;101745.22;4979662;28;45439;-46
2023/06/23 00:49:00;;;;;;;;;5.25;4.50;;;;;25.51;42.96;101743.63;4978506;28;45302;-48
2023/06/23 00:51:26;;;;;;;;;8.00;4.50;;;;;25.52;43.33;101742.66;4979193;28;47111;-47
2023/06/23 00:53:53;;;;;;;;;5.50;5.50;;;;;25.50;43.34;101738.41;4979231;28;45289;-48
2023/06/23 00:56:23;;;;;;;;;6.00;6.00;;;;;25.51;43.28;101746.28;4979216;28;45437;-47
2023/06/23 00:58:49;;;;;;;;;7.00;6.00;;;;;25.50;43.20;101747.22;4979365;28;45370;-45
2023/06/23 01:01:15;;;;;;;;;5.00;5.00;;;;;25.50;43.38;101749.00;4979374;28;45446;-47
2023/06/23 01:03:41;;;;;;;;;7.25;5.00;;;;;25.49;43.04;101753.47;4978878;28;45277;-44
2023/06/23 01:06:26;;;;;;;;;5.25;5.25;;;;;25.50;42.96;101749.88;4979239;28;45293;-47
2023/06/23 01:09:12;;;;;;;;;7.00;5.75;;;;;25.49;43.47;101752.63;4979210;28;45404;-45
2023/06/23 01:11:43;;;;;;;;;4.25;4.25;;;;;25.48;43.11;101743.81;4979009;28;45348;-43
2023/06/23 01:14:18;;;;;;;;;5.25;4.00;;;;;25.50;43.25;101755.19;4978888;28;45427;-46
2023/06/23 01:17:00;;;;;;;;;5.00;5.00;;;;;25.49;43.14;101748.16;4979449;28;45304;-45
2023/06/23 01:19:49;;;;;;;;;5.50;4.00;;;;;25.47;43.68;101756.22;4979193;28;45466;-46
2023/06/23 01:22:31;;;;;;;;;6.75;4.50;;;;;25.47;43.29;101758.88;4979198;28;45384;-45
2023/06/23 01:25:09;;;;;;;;;5.75;4.00;;;;;25.47;43.71;101758.03;4979027;28;45310;-47
2023/06/23 01:27:49;;;;;;;;;4.50;4.50;;;;;25.45;43.36;101752.81;4978008;28;45395;-48
2023/06/23 01:30:17;;;;;;;;;5.75;4.75;;;;;25.47;43.54;101755.38;4979633;28;45538;-46
2023/06/23 01:32:52;;;;;;;;;6.50;5.50;;;;;25.47;43.38;101763.34;4978813;28;46419;-49
2023/06/23 01:35:23;;;;;;;;;7.25;5.00;;;;;25.45;43.74;101765.22;4979077;28;45412;-49
2023/06/23 01:37:53;;;;;;;;;6.00;6.00;;;;;25.44;43.85;101758.22;4977631;28;45330;-47
2023/06/23 01:40:22;;;;;;;;;6.25;4.00;;;;;25.44;43.75;101771.47;4979419;28;45896;-49
2023/06/23 01:42:56;;;;;;;;;5.00;5.00;;;;;25.42;43.76;101770.72;4978866;28;45307;-51
2023/06/23 01:45:24;;;;;;;;;9.75;6.50;;;;;25.45;43.59;101770.53;4978456;28;45594;-46
2023/06/23 01:47:52;;;;;;;;;5.50;5.50;;;;;25.43;43.36;101769.75;4978820;28;45309;-45
2023/06/23 01:50:19;;;;;;;;;5.50;5.00;;;;;25.43;43.43;101775.06;4979050;28;45281;-46
2023/06/23 01:52:46;;;;;;;;;5.25;5.25;;;;;25.42;43.22;101778.69;4978691;28;45414;-46
2023/06/23 01:55:12;;;;;;;;;9.00;5.25;;;;;25.42;43.70;101779.53;4978508;28;45225;-48
2023/06/23 01:57:39;;;;;;;;;7.25;5.50;;;;;25.42;43.67;101783.97;4978263;28;45244;-49
2023/06/23 02:00:11;;;;;;;;;5.00;5.00;;;;;25.42;43.87;101783.97;4978595;28;45370;-47
2023/06/23 02:02:38;;;;;;;;;5.75;5.00;;;;;25.41;43.99;101787.63;4977856;28;45514;-51
2023/06/23 02:05:05;;;;;;;;;5.75;5.75;;;;;25.41;43.70;101790.25;4978218;28;45913;-48
2023/06/23 02:07:32;;;;;;;;;6.25;5.00;;;;;25.42;43.61;101797.25;4976995;28;45247;-47
2023/06/23 02:10:01;;;;;;;;;5.00;5.00;;;;;25.42;43.95;101799.91;4978501;28;45462;-44
2023/06/23 02:12:27;;;;;;;;;5.50;4.75;;;;;25.40;43.59;101807.09;4978155;28;45657;-50
2023/06/23 02:14:52;;;;;;;;;8.50;5.00;;;;;25.41;43.56;101798.22;4977986;28;45370;-45
2023/06/23 02:17:21;;;;;;;;;4.25;4.25;;;;;25.40;43.20;101793.84;4978384;28;45334;-45
2023/06/23 02:19:48;;;;;;;;;3.25;3.25;;;;;25.38;43.46;101798.38;4978538;28;45460;-45
2023/06/23 02:22:18;;;;;;;;;6.00;6.00;;;;;25.40;43.74;101801.78;4977788;28;47412;-47
2023/06/23 02:24:45;;;;;;;;;6.25;4.25;;;;;25.40;43.37;101804.44;4977722;28;45689;-44
2023/06/23 02:27:12;;;;;;;;;8.00;6.00;;;;;25.39;43.78;101789.47;4978035;28;45367;-45
2023/06/23 02:29:39;;;;;;;;;3.75;2.50;;;;;25.39;43.19;101802.72;4976915;28;45376;-46
2023/06/23 02:32:05;;;;;;;;;5.25;4.00;;;;;25.35;43.02;101799.41;4977611;28;46203;-45
2023/06/23 02:34:31;;;;;;;;;6.00;5.00;;;;;25.36;43.61;101801.09;4977687;28;45423;-46
2023/06/23 02:37:05;;;;;;;;;5.50;4.50;;;;;25.37;43.42;101801.97;4977872;28;45441;-46
2023/06/23 02:39:36;;;;;;;;;4.00;4.00;;;;;25.35;43.05;101798.56;4976220;28;45262;-44
2023/06/23 02:42:03;;;;;;;;;4.00;4.00;;;;;25.35;43.50;101803.84;4977622;28;46413;-45
2023/06/23 02:44:37;;;;;;;;;4.00;4.00;;;;;25.34;43.11;101804.81;4977548;28;45364;-44
2023/06/23 02:47:08;;;;;;;;;5.00;4.00;;;;;25.32;43.28;101805.75;4977722;28;45273;-43
2023/06/23 02:49:37;;;;;;;;;4.75;3.75;;;;;25.32;42.90;101815.53;4977876;28;45474;-45
2023/06/23 02:52:05;;;;;;;;;4.25;4.25;;;;;25.30;43.55;101818.25;4977400;28;46551;-46
2023/06/23 02:54:35;;;;;;;;;3.50;3.25;;;;;25.30;42.93;101828.84;4977473;28;45343;-46
2023/06/23 02:57:02;;;;;;;;;4.50;4.00;;;;;25.29;42.92;101832.50;4977417;28;45469;-42
2023/06/23 02:59:30;;;;;;;;;4.00;3.00;;;;;25.29;43.49;101829.84;4977683;28;45504;-47
2023/06/23 03:01:58;;;;;;;;;3.50;3.50;;;;;25.30;43.19;101835.97;4977107;28;46662;-45
2023/06/23 03:04:24;;;;;;;;;6.75;5.00;;;;;25.28;43.20;101836.09;4977140;28;45679;-44
2023/06/23 03:06:49;;;;;;;;;4.00;3.75;;;;;25.28;43.30;101838.75;4977525;28;45418;-44
2023/06/23 03:09:15;;;;;;;;;4.25;4.00;;;;;25.27;43.06;101833.50;4977519;28;45223;-45
2023/06/23 03:11:40;;;;;;;;;3.50;3.50;;;;;25.25;43.13;101832.72;4977052;28;46715;-45
2023/06/23 03:14:06;;;;;;;;;4.00;4.00;;;;;25.24;43.15;101841.66;4977120;28;45296;-45
2023/06/23 03:16:46;;;;;;;;;3.50;3.50;;;;;25.23;43.43;101832.84;4977247;28;45393;-46
2023/06/23 03:19:19;;;;;;;;;5.25;3.75;;;;;25.23;43.45;101824.88;4977490;28;45368;-44
2023/06/23 03:21:50;;;;;;;;;4.00;3.00;;;;;25.23;43.21;101827.53;4976831;28;45402;-44
2023/06/23 03:24:18;;;;;;;;;6.75;3.75;;;;;25.23;43.16;101832.84;4976966;28;45339;-45
2023/06/23 03:26:48;;;;;;;;;3.50;2.25;;;;;25.19;42.94;101820.69;4977173;28;45422;-45
2023/06/23 03:29:16;;;;;;;;;4.00;4.00;;;;;25.22;42.99;101830.28;4975991;28;45373;-44
2023/06/23 03:31:44;;;;;;;;;5.00;3.50;;;;;25.21;42.99;101829.41;4976837;28;47487;-44
2023/06/23 03:34:10;;;;;;;;;4.50;3.25;;;;;25.20;43.28;101826.88;4975719;28;45322;-46
2023/06/23 03:36:39;;;;;;;;;4.00;4.00;;;;;25.20;42.83;101832.19;4976820;28;45312;-46
2023/06/23 03:39:13;;;;;;;;;3.50;3.25;;;;;25.19;43.01;101847.22;4977061;28;45258;-44
2023/06/23 03:41:40;;;;;;;;;5.25;3.50;;;;;25.16;42.67;101842.13;4976613;28;46263;-47
2023/06/23 03:44:38;;;;;;;;;4.75;4.25;;;;;25.16;42.98;101844.78;4976630;28;45338;-46
2023/06/23 03:47:14;;;;;;;;;6.00;6.00;;;;;25.17;43.27;101849.97;4976787;28;45445;-48
2023/06/23 03:49:46;;;;;;;;;5.75;5.00;;;;;25.17;42.85;101855.28;4976723;28;45485;-46
2023/06/23 03:52:14;;;;;;;;;6.00;4.75;;;;;25.14;43.22;101854.63;4979754;28;46295;-47
2023/06/23 03:54:42;;;;;;;;;7.00;4.00;;;;;25.15;43.26;101861.63;4980070;28;45367;-47
2023/06/23 03:57:11;;;;;;;;;5.00;5.00;;;;;25.14;42.99;101859.91;4978592;28;45251;-47
2023/06/23 03:59:39;;;;;;;;;6.50;6.50;;;;;25.13;43.34;101852.91;4980416;28;45252;-48
2023/06/23 04:02:07;;;;;;;;;4.75;3.50;;;;;25.12;42.78;101851.19;4978671;28;47282;-43
2023/06/23 04:04:36;;;;;;;;;4.75;4.00;;;;;25.12;42.87;101854.72;4979900;28;45748;-47
2023/06/23 04:07:04;;;;;;;;;6.50;4.00;;;;;25.12;42.79;101864.47;4980140;28;45313;-43
2023/06/23 04:09:31;;;;;;;;;6.00;4.75;;;;;25.12;43.30;101867.09;4980285;28;45426;-44
2023/06/23 04:11:59;;;;;;;;;5.00;4.75;;;;;25.11;43.22;101865.41;4979845;28;46722;-47
2023/06/23 04:14:27;;;;;;;;;4.25;4.25;;;;;25.10;43.42;101874.31;4980059;28;45659;-47
2023/06/23 04:16:54;;;;;;;;;7.50;4.75;;;;;25.09;43.14;101877.88;4980175;28;45432;-46
2023/06/23 04:19:27;;;;;;;;;7.00;4.00;;;;;25.10;43.03;101893.75;4980024;28;45438;-45
2023/06/23 04:21:53;;;;;;;;;4.00;4.00;;;;;25.10;43.07;101890.22;4980048;28;46138;-45
2023/06/23 04:24:21;;;;;;;;;6.25;5.00;;;;;25.10;43.42;101895.50;4979751;28;45383;-46
2023/06/23 04:26:49;;;;;;;;;4.00;4.00;;;;;25.11;42.96;101889.28;4979787;28;45368;-46
2023/06/23 04:29:17;;;;;;;;;4.00;3.75;;;;;25.10;43.52;101884.91;4979970;28;45399;-44
2023/06/23 04:31:46;;;;;;;;;8.00;4.25;;;;;25.09;43.30;101877.88;4979487;28;46812;-44
2023/06/23 04:34:11;;;;;;;;;4.75;4.75;;;;;25.08;43.33;101882.34;4979589;28;45736;-46
2023/06/23 04:36:45;;;;;;;;;3.75;3.75;;;;;25.09;42.99;101888.50;4979785;28;45474;-45
2023/06/23 04:39:37;;;;;;;;;3.75;3.25;;;;;25.08;43.30;101881.50;4979821;28;45320;-46
2023/06/23 04:42:08;;;;;;;;;3.00;3.00;;;;;25.07;43.61;101885.13;4978339;28;46687;-46
2023/06/23 04:44:42;;;;;;;;;3.75;3.00;;;;;25.07;43.30;101891.25;4979488;28;45338;-44
2023/06/23 04:47:10;;;;;;;;;4.25;4.00;;;;;25.07;43.57;101898.38;4966789;28;45257;-50
2023/06/23 04:49:39;;;;;;;;;4.00;3.75;;;;;25.06;43.55;101899.31;4958855;28;45275;-44
2023/06/23 04:52:07;;;;;;;;;6.50;2.25;;;;;25.06;43.13;101905.47;4942205;28;46152;-46
2023/06/23 04:54:40;;;;;;;;;4.50;2.75;;;;;25.05;43.51;101911.69;4958449;28;45441;-46
2023/06/23 04:57:13;;;;;;;;;4.25;3.00;;;;;25.08;43.81;101919.50;4959753;28;45391;-46
2023/06/23 04:59:41;;;;;;;;;3.00;3.00;;;;;25.01;44.08;101919.00;4960060;28;45405;-44
2023/06/23 05:02:11;;;;;;;;;4.75;3.75;;;;;25.01;43.66;101928.75;4959285;28;46574;-44
2023/06/23 05:04:39;;;;;;;;;5.75;4.00;;;;;24.93;43.44;101915.94;4958037;28;46209;-48
2023/06/23 05:07:07;;;;;;;;;4.75;3.00;;;;;24.83;44.08;101912.09;4958476;28;45349;-49
2023/06/23 05:09:35;;;;;;;;;4.50;3.50;;;;;24.77;44.01;101915.06;4959847;28;45341;-44
2023/06/23 05:12:03;;;;;;;;;7.00;4.00;;;;;24.69;44.33;101913.72;4959434;28;46163;-46
2023/06/23 05:14:30;;;;;;;;;4.00;4.00;;;;;24.63;44.40;101914.06;4958346;28;46287;-49
2023/06/23 05:16:59;;;;;;;;;4.00;2.50;;;;;24.57;44.83;101917.03;4959765;28;45273;-48
2023/06/23 05:19:28;;;;;;;;;4.00;3.00;;;;;24.51;44.95;101918.22;4959778;28;45188;-48
2023/06/23 05:21:55;;;;;;;;;4.50;4.00;;;;;24.45;44.66;101923.00;4959254;28;45364;-46
2023/06/23 05:24:25;;;;;;;;;5.25;4.75;;;;;24.38;44.60;101926.00;4959353;28;45860;-48
2023/06/23 05:26:54;;;;;;;;;4.00;4.00;;;;;24.34;44.69;101931.56;4959273;28;45392;-45
2023/06/23 05:29:22;;;;;;;;;4.50;4.50;;;;;24.28;45.16;101934.53;4959474;28;45563;-44
2023/06/23 05:31:49;;;;;;;;;3.00;3.00;;;;;24.20;45.37;101948.16;4957913;28;48159;-47
2023/06/23 05:34:17;;;;;;;;;4.50;4.50;;;;;24.18;45.49;101950.06;4959142;28;45178;-45
2023/06/23 05:36:44;;;;;;;;;3.00;2.75;;;;;24.13;45.01;101938.84;4959200;28;45426;-48
2023/06/23 05:39:12;;;;;;;;;4.25;4.00;;;;;24.06;45.29;101933.91;4957935;28;45559;-44
2023/06/23 05:41:38;;;;;;;;;4.25;4.25;;;;;24.01;45.14;101943.88;4958940;28;46507;-46
2023/06/23 05:44:04;;;;;;;;;4.25;3.25;;;;;23.98;45.53;101938.72;4957542;28;45275;-45
2023/06/23 05:46:32;;;;;;;;;5.75;5.00;;;;;23.95;45.41;101941.56;4959389;28;45298;-46
2023/06/23 05:49:08;;;;;;;;;5.00;3.00;;;;;23.94;46.10;101939.81;4959513;28;45409;-44
2023/06/23 05:51:35;;;;;;;;;5.25;4.00;;;;;23.91;45.52;101943.47;4958722;28;45440;-44
2023/06/23 05:54:07;;;;;;;;;5.00;3.00;;;;;23.89;46.22;101936.53;4959025;28;45321;-44
2023/06/23 05:56:49;;;;;;;;;6.00;4.75;;;;;23.88;45.85;101940.13;4958720;28;45388;-45
2023/06/23 05:59:22;;;;;;;;;5.50;5.00;;;;;23.84;45.79;101946.53;4958906;28;45494;-44
2023/06/23 06:01:52;;;;;;;;;6.25;4.50;;;;;23.83;45.99;101943.00;4958651;28;45442;-44
2023/06/23 06:04:22;;;;;;;;;6.25;3.50;;;;;23.83;46.16;101950.94;4958206;28;45393;-44
2023/06/23 06:06:50;;;;;;;;;5.00;3.75;;;;;23.80;46.62;101952.91;4957526;28;45413;-43
2023/06/23 06:09:18;;;;;;;;;5.00;3.00;;;;;23.80;46.49;101953.78;4958794;28;45440;-45
2023/06/23 06:11:46;;;;;;;;;5.00;4.25;;;;;23.78;46.00;101950.34;4958470;28;45318;-45
2023/06/23 06:14:13;;;;;;;;;4.25;4.00;;;;;23.75;46.25;101958.44;4957700;28;45412;-46
2023/06/23 06:16:40;;;;;;;;;4.00;4.00;;;;;23.74;46.45;101967.31;4957257;28;45294;-45
2023/06/23 06:19:07;;;;;;;;;5.00;5.00;;;;;23.70;46.49;101958.69;4958548;28;45432;-45
2023/06/23 06:21:34;;;;;;;;;4.50;4.00;;;;;23.73;46.35;101955.88;4958262;28;47158;-43
2023/06/23 06:24:01;;;;;;;;;6.75;5.75;;;;;23.75;46.89;101954.00;4956375;28;45423;-46
2023/06/23 06:26:27;;;;;;;;;6.25;5.25;;;;;23.78;46.69;101959.13;4958115;28;45289;-45
2023/06/23 06:28:54;;;;;;;;;4.00;2.50;;;;;23.83;46.30;101963.34;4958644;28;45210;-47
2023/06/23 06:31:22;;;;;;;;;5.00;4.25;;;;;23.83;46.68;101958.03;4958229;28;45442;-44
2023/06/23 06:33:53;;;;;;;;;6.75;5.00;;;;;23.86;46.30;101957.91;4958138;28;45277;-42
2023/06/23 06:36:21;;;;;;;;;5.25;4.25;;;;;23.89;46.84;101960.34;4957179;28;45304;-44
2023/06/23 06:38:49;;;;;;;;;6.00;6.00;;;;;23.90;46.92;101962.06;4958359;28;45487;-46
2023/06/23 06:41:16;;;;;;;;;7.00;5.50;;;;;23.89;46.63;101957.72;4957874;28;45673;-45
2023/06/23 06:43:41;;;;;;;;;4.75;4.75;;;;;23.89;46.57;101960.34;4958109;28;45680;-46
2023/06/23 06:46:07;;;;;;;;;6.00;5.50;;;;;23.88;46.78;101964.81;4957768;28;45432;-44
2023/06/23 06:48:34;;;;;;;;;9.00;6.00;;;;;23.84;46.60;101959.75;4956493;28;45412;-44
2023/06/23 06:51:01;;;;;;;;;2.50;2.00;;;;;23.85;47.06;101967.63;4957256;28;46537;-44
2023/06/23 06:53:28;;;;;;;;;12.00;5.75;;;;;23.85;46.54;101966.78;4957183;28;45638;-46
2023/06/23 06:55:55;;;;;;;;;7.00;4.00;;;;;23.84;47.36;101968.53;4957362;28;45421;-44
2023/06/23 06:58:21;;;;;;;;;5.25;5.25;;;;;23.83;46.81;101961.53;4957542;28;45478;-45
2023/06/23 07:00:46;;;;;;;;;5.00;5.00;;;;;23.84;47.04;101962.41;4956934;28;46133;-46
2023/06/23 07:03:13;;;;;;;;;6.50;4.00;;;;;23.84;47.30;101960.59;4955615;28;45385;-46
2023/06/23 07:05:39;;;;;;;;;6.00;6.00;;;;;23.85;46.77;101964.13;4957252;28;45242;-43
2023/06/23 07:08:05;;;;;;;;;3.00;3.00;;;;;23.84;47.09;101965.91;4957589;28;45264;-45
2023/06/23 07:10:32;;;;;;;;;6.00;3.75;;;;;23.85;46.84;101961.47;4957131;28;46316;-45
2023/06/23 07:12:57;;;;;;;;;7.00;6.00;;;;;23.85;47.05;101961.47;4957683;28;45795;-48
2023/06/23 07:15:23;;;;;;;;;7.00;5.00;;;;;23.85;47.29;101951.72;4956718;28;45651;-46
2023/06/23 07:17:48;;;;;;;;;8.00;6.00;;;;;23.86;47.14;101944.66;4957262;28;45627;-42
2023/06/23 07:20:13;;;;;;;;;6.50;6.25;;;;;23.83;47.09;101943.00;4957066;28;56586;-44
2023/06/23 07:22:38;;;;;;;;;6.75;5.00;;;;;23.85;47.28;101943.78;4956592;28;45522;-43
2023/06/23 07:25:05;;;;;;;;;6.00;4.00;;;;;23.84;46.72;101933.28;4956045;28;45534;-46
2023/06/23 07:27:30;;;;;;;;;5.00;5.00;;;;;23.88;47.21;101942.75;4954499;28;45684;-46
2023/06/23 07:29:56;;;;;;;;;8.00;5.25;;;;;23.87;46.83;101941.03;4954985;28;46408;-45
2023/06/23 07:32:22;;;;;;;;;7.25;6.00;;;;;23.87;46.96;101941.03;4956570;28;45364;-43
2023/06/23 07:34:48;;;;;;;;;9.75;5.25;;;;;23.89;47.26;101939.19;4955453;28;45435;-45
2023/06/23 07:37:13;;;;;;;;;5.00;5.00;;;;;23.89;46.80;101934.75;4956803;28;45310;-47
2023/06/23 07:39:39;;;;;;;;;7.00;5.75;;;;;23.92;47.15;101945.16;4955394;28;47928;-44
2023/06/23 07:42:04;;;;;;;;;10.75;6.00;;;;;23.92;46.96;101947.81;4956798;28;45273;-48
2023/06/23 07:44:31;;;;;;;;;6.00;4.75;;;;;23.98;47.41;101953.78;4938061;28;45322;-51
2023/06/23 07:46:58;;;;;;;;;6.00;5.50;;;;;24.01;46.90;101959.75;4938201;28;45614;-51
2023/06/23 07:49:23;;;;;;;;;5.50;3.00;;;;;24.05;46.66;101960.44;4945910;28;47230;-45
2023/06/23 07:51:48;;;;;;;;;6.25;6.00;;;;;24.08;47.22;101960.28;4956678;28;60915;-44
2023/06/23 07:54:14;;;;;;;;;18.25;15.00;;;;;24.12;47.34;101956.56;4957189;28;45347;-44
2023/06/23 07:56:39;;;;;;;;;10.75;10.25;;;;;24.14;46.64;101957.34;4957351;28;45459;-46
2023/06/23 07:59:04;;;;;;;;;10.00;7.25;;;;;24.14;46.86;101959.09;4956894;28;51207;-45
2023/06/23 08:01:30;;;;;;;;;9.50;7.25;;;;;24.18;47.15;101960.66;4956432;28;45569;-46
2023/06/23 08:03:55;;;;;;;;;4.50;4.50;;;;;24.20;47.05;101966.72;4956369;28;45515;-46
2023/06/23 08:06:23;;;;;;;;;5.50;5.50;;;;;24.20;47.03;101966.72;4956125;28;48833;-47
2023/06/23 08:08:50;;;;;;;;;6.75;5.00;;;;;24.20;46.65;101966.72;4956916;28;47094;-48
2023/06/23 08:11:15;;;;;;;;;5.00;4.50;;;;;24.20;46.65;101964.06;4956912;28;45769;-43
2023/06/23 08:13:40;;;;;;;;;7.00;4.75;;;;;24.22;46.55;101972.78;4957120;28;45174;-48
2023/06/23 08:16:06;;;;;;;;;6.00;6.00;;;;;24.22;47.16;101975.44;4956889;28;51454;-46
2023/06/23 08:18:31;;;;;;;;;5.00;5.00;;;;;24.27;47.00;101980.50;4956774;28;45259;-45
2023/06/23 08:20:57;;;;;;;;;5.50;5.00;;;;;24.25;46.88;101988.53;4956661;28;52360;-45
2023/06/23 08:23:22;;;;;;;;;3.50;3.00;;;;;24.28;46.33;101988.38;4956927;28;45365;-46
2023/06/23 08:25:47;;;;;;;;;4.25;4.25;;;;;24.30;46.65;101997.09;4957102;28;45276;-44
2023/06/23 08:28:13;;;;;;;;;7.00;4.50;;;;;24.30;46.50;101997.09;4955535;28;45955;-47
2023/06/23 08:30:38;;;;;;;;;3.75;3.75;;;;;24.31;45.76;101988.19;4956546;28;59962;-43
2023/06/23 08:33:03;;;;;;;;;4.50;3.75;;;;;24.32;45.93;101989.91;4957097;28;45340;-46
2023/06/23 08:35:28;;;;;;;;;4.00;3.75;;;;;24.32;45.83;101997.84;4956973;28;45578;-45
2023/06/23 08:37:54;;;;;;;;;7.00;5.00;;;;;24.31;45.35;101988.19;4959076;28;46266;-49
2023/06/23 08:40:19;;;;;;;;;7.00;5.00;;;;;24.33;45.50;101999.56;4958249;28;45453;-45
2023/06/23 08:42:45;;;;;;;;;4.50;4.50;;;;;24.33;45.47;101996.06;4959359;28;45313;-46
2023/06/23 08:45:12;;;;;;;;;5.00;2.75;;;;;24.33;46.19;101993.44;4958854;28;45334;-45
2023/06/23 08:47:45;;;;;;;;;4.25;4.25;;;;;24.34;45.55;102000.44;4959965;28;47375;-45
2023/06/23 08:50:11;;;;;;;;;4.75;4.25;;;;;24.35;46.13;101991.56;4959945;28;45329;-45
2023/06/23 08:52:38;;;;;;;;;7.50;3.00;;;;;24.39;45.95;102006.34;4959697;28;45361;-45
2023/06/23 08:55:04;;;;;;;;;5.00;4.00;;;;;24.41;46.20;101998.31;4959830;28;45242;-47
2023/06/23 08:57:29;;;;;;;;;4.50;4.00;;;;;24.41;45.62;101996.50;4959291;28;45421;-47
2023/06/23 08:59:55;;;;;;;;;4.00;4.00;;;;;24.42;45.71;102005.34;4959567;28;45215;-47
2023/06/23 09:02:21;;;;;;;;;3.75;3.75;;;;;24.44;45.48;102006.97;4942015;28;45404;-45
2023/06/23 09:04:47;;;;;;;;;8.00;4.25;;;;;24.45;45.87;102008.66;4958990;28;45599;-44
2023/06/23 09:07:12;;;;;;;;;5.00;5.00;;;;;24.48;45.98;102012.94;4958919;28;46229;-46
2023/06/23 09:09:38;;;;;;;;;5.00;5.00;;;;;24.49;45.44;102006.72;4958688;28;45372;-45
2023/06/23 09:12:03;;;;;;;;;5.00;4.75;;;;;24.50;45.94;102011.06;4958818;28;45954;-46
2023/06/23 09:14:30;;;;;;;;;4.75;4.00;;;;;24.52;45.41;102012.69;4958916;28;45527;-45
2023/06/23 09:16:57;;;;;;;;;6.50;4.25;;;;;24.53;45.84;102013.53;4954661;28;48978;-46
2023/06/23 09:19:23;;;;;;;;;9.00;6.00;;;;;24.54;45.95;102013.47;4958584;28;45401;-46
2023/06/23 09:21:49;;;;;;;;;4.50;3.75;;;;;24.56;45.81;102016.03;4958336;28;45358;-45
2023/06/23 09:24:14;;;;;;;;;4.00;4.00;;;;;24.59;45.72;102029.13;4959728;28;45706;-46
2023/06/23 09:26:48;;;;;;;;;7.75;4.25;;;;;24.60;45.54;102019.38;4958723;28;45403;-47
2023/06/23 09:29:19;;;;;;;;;4.75;4.25;;;;;24.61;45.09;102021.94;4958857;28;45698;-46
2023/06/23 09:31:49;;;;;;;;;5.00;4.00;;;;;24.64;44.98;102015.63;4956719;28;45379;-46
2023/06/23 09:34:30;;;;;;;;;3.00;3.00;;;;;24.66;44.71;102019.06;4958878;28;45275;-49
2023/06/23 09:37:06;;;;;;;;;6.00;5.50;;;;;24.66;45.00;102022.53;4958628;28;46404;-46
2023/06/23 09:39:43;;;;;;;;;4.00;3.00;;;;;24.69;44.41;102009.16;4958796;28;45434;-46
2023/06/23 09:42:13;;;;;;;;;6.25;4.75;;;;;24.68;45.10;102002.16;4959014;28;45226;-45
2023/06/23 09:44:45;;;;;;;;;5.25;4.25;;;;;24.75;45.44;102012.44;4958851;28;45355;-46
2023/06/23 09:47:13;;;;;;;;;4.00;3.50;;;;;24.78;44.81;102007.81;4958956;28;46889;-46
2023/06/23 09:49:39;;;;;;;;;4.75;4.75;;;;;24.81;45.24;102001.47;4957888;28;45372;-46
2023/06/23 09:52:06;;;;;;;;;5.75;4.00;;;;;24.84;44.90;102001.31;4959074;28;45389;-43
2023/06/23 09:54:36;;;;;;;;;5.00;3.75;;;;;24.89;45.07;102001.88;4958995;28;45372;-45
2023/06/23 09:57:05;;;;;;;;;3.75;3.75;;;;;24.91;44.70;102002.66;4958665;28;45364;-49
2023/06/23 09:59:31;;;;;;;;;5.50;4.75;;;;;24.92;44.66;102004.38;4958683;28;45396;-51
2023/06/23 10:01:56;;;;;;;;;6.75;5.50;;;;;24.94;44.57;101997.19;4958879;28;45340;-45
2023/06/23 10:04:30;;;;;;;;;6.25;6.25;;;;;24.96;44.77;102005.06;4958009;28;45384;-45
2023/06/23 10:06:56;;;;;;;;;5.50;4.50;;;;;24.97;44.50;102002.31;4958032;28;45488;-44
2023/06/23 10:09:25;;;;;;;;;6.25;4.50;;;;;25.00;44.30;101998.66;4958309;28;45747;-44
2023/06/23 10:11:51;;;;;;;;;5.50;5.00;;;;;25.00;44.65;101999.50;4958501;28;45320;-44
2023/06/23 10:14:18;;;;;;;;;5.25;5.00;;;;;25.00;44.28;101998.66;4959001;28;45298;-46
2023/06/23 10:16:44;;;;;;;;;6.75;5.00;;;;;25.02;44.57;101991.47;4958280;28;46407;-45
2023/06/23 10:19:11;;;;;;;;;6.50;4.00;;;;;25.01;44.91;101982.63;4957191;28;45697;-46
2023/06/23 10:21:38;;;;;;;;;4.00;3.50;;;;;25.06;44.43;101989.50;4958583;28;45360;-47
2023/06/23 10:24:07;;;;;;;;;5.00;5.00;;;;;25.08;44.00;101992.91;4957302;28;45294;-45
2023/06/23 10:26:35;;;;;;;;;6.00;5.50;;;;;25.10;44.66;101996.31;4958110;28;45686;-47
2023/06/23 10:29:04;;;;;;;;;4.00;4.00;;;;;25.13;44.69;101982.88;4958016;28;45790;-46
2023/06/23 10:31:31;;;;;;;;;6.00;4.75;;;;;25.16;44.23;101988.03;4958398;28;45289;-46
2023/06/23 10:34:03;;;;;;;;;8.00;5.00;;;;;25.16;44.22;101983.56;4958408;28;45469;-47
2023/06/23 10:36:30;;;;;;;;;5.50;5.00;;;;;25.18;44.14;101980.84;4958090;28;45660;-44
2023/06/23 10:39:00;;;;;;;;;4.25;4.25;;;;;25.19;44.57;101979.88;4957910;28;45410;-47
2023/06/23 10:41:26;;;;;;;;;7.00;4.00;;;;;25.21;44.23;101978.00;4955108;28;45432;-45
2023/06/23 10:43:55;;;;;;;;;3.75;3.75;;;;;25.22;44.25;101974.41;4957813;28;45345;-48
2023/06/23 10:46:22;;;;;;;;;3.75;3.50;;;;;25.25;44.32;101978.66;4957137;28;46511;-44
2023/06/23 10:48:48;;;;;;;;;6.00;4.00;;;;;25.24;44.48;101971.69;4939013;28;45820;-45
2023/06/23 10:51:15;;;;;;;;;8.00;5.00;;;;;25.27;44.20;101979.44;4937436;28;45417;-46
2023/06/23 10:53:50;;;;;;;;;5.25;5.25;;;;;25.25;43.97;101976.88;4938964;28;45493;-45
2023/06/23 10:56:39;;;;;;;;;4.50;4.50;;;;;25.27;43.68;101984.75;4938952;28;45505;-45
2023/06/23 10:59:27;;;;;;;;;5.00;4.00;;;;;25.29;43.64;101990.81;4937867;28;45330;-45
2023/06/23 11:02:12;;;;;;;;;5.50;5.00;;;;;25.28;43.59;101984.66;4938805;28;45353;-46
2023/06/23 11:04:49;;;;;;;;;5.25;5.00;;;;;25.29;43.63;101983.72;4918019;28;45460;-45
2023/06/23 11:07:14;;;;;;;;;5.00;4.00;;;;;25.30;43.54;101982.75;4938127;28;46378;-44
2023/06/23 11:09:55;;;;;;;;;4.00;4.00;;;;;25.30;44.08;101982.75;4938369;28;45339;-49
2023/06/23 11:12:31;;;;;;;;;4.75;4.50;;;;;25.31;43.92;101979.16;4938865;28;45306;-47
2023/06/23 11:15:16;;;;;;;;;5.75;4.00;;;;;25.32;43.64;101980.03;4938523;28;45608;-45
2023/06/23 11:17:46;;;;;;;;;5.00;5.00;;;;;25.32;43.69;101980.88;4936901;28;46086;-48
2023/06/23 11:20:24;;;;;;;;;4.25;4.25;;;;;25.32;43.76;101983.53;4938135;28;45452;-46
2023/06/23 11:23:06;;;;;;;;;4.50;4.00;;;;;25.35;43.92;101981.66;4938637;28;45321;-46
2023/06/23 11:25:32;;;;;;;;;7.50;5.00;;;;;25.35;43.92;101984.31;4938546;28;45368;-46
2023/06/23 11:28:36;;;;;;;;;5.50;5.50;;;;;25.37;43.83;101982.41;4938164;28;45385;-46
2023/06/23 11:31:19;;;;;;;;;5.00;5.00;;;;;25.36;43.19;101976.25;4938231;28;45882;-48